Time;durP1;ratioP1;P1;durP2;ratioP2;P2;SDS_P1;SDS_P2;PMS_P1;PMS_P2;Temp;Humidity;BMP_temperature;BMP_pressure;BME280_temperature;BME280_humidity;BME280_pressure;Samples;Min_cycle;Max_cycle;Signal;HPM_P1;HPM_P2
2022/09/01 00:00:27;;;;;;;8.30;0.80;;;16.00;96.30;;;;;;5059875;28;20029;-81
2022/09/01 00:02:54;;;;;;;4.28;0.70;;;16.00;96.40;;;;;;5052365;28;20020;-79
2022/09/01 00:05:20;;;;;;;3.15;0.70;;;16.00;96.40;;;;;;5049728;28;20040;-84
2022/09/01 00:07:46;;;;;;;1.48;0.60;;;16.00;96.60;;;;;;5056149;28;20028;-81
2022/09/01 00:10:11;;;;;;;1.23;0.63;;;16.00;96.40;;;;;;5057275;28;20393;-80
2022/09/01 00:12:37;;;;;;;1.95;0.77;;;16.10;96.50;;;;;;5059932;28;20078;-82
2022/09/01 00:15:06;;;;;;;2.33;0.90;;;16.10;96.70;;;;;;5056230;28;20025;-85
2022/09/01 00:17:32;;;;;;;2.78;0.82;;;16.20;96.80;;;;;;5057968;28;20020;-83
2022/09/01 00:19:58;;;;;;;1.33;0.60;;;16.20;96.60;;;;;;5052022;28;20025;-84
2022/09/01 00:22:23;;;;;;;1.35;0.70;;;16.20;96.30;;;;;;5052353;28;20047;-82
2022/09/01 00:24:49;;;;;;;2.88;0.80;;;16.20;96.30;;;;;;5052201;28;20395;-82
2022/09/01 00:27:14;;;;;;;1.73;0.68;;;16.30;96.20;;;;;;5054181;28;20542;-81
2022/09/01 00:29:40;;;;;;;1.90;0.90;;;16.30;96.00;;;;;;5052685;28;20009;-85
2022/09/01 00:32:05;;;;;;;0.85;0.60;;;16.30;96.00;;;;;;5061993;28;20021;-83
2022/09/01 00:34:31;;;;;;;1.67;0.68;;;16.30;96.20;;;;;;5070169;28;20048;-82
2022/09/01 00:36:56;;;;;;;1.20;0.40;;;16.30;96.00;;;;;;5070906;28;20047;-88
2022/09/01 00:39:22;;;;;;;1.38;0.68;;;16.30;95.60;;;;;;5055886;28;20085;-82
2022/09/01 00:41:49;;;;;;;1.38;0.60;;;16.30;95.70;;;;;;5054797;28;20025;-82
2022/09/01 00:44:18;;;;;;;0.95;0.50;;;16.30;95.60;;;;;;5051495;28;20057;-80
2022/09/01 00:46:48;;;;;;;1.23;0.77;;;16.30;95.80;;;;;;5064866;28;20545;-80
2022/09/01 00:49:20;;;;;;;1.17;0.65;;;16.30;96.00;;;;;;5051686;28;20028;-81
2022/09/01 00:51:49;;;;;;;1.55;0.82;;;16.20;95.80;;;;;;5051382;28;20405;-84
2022/09/01 00:54:20;;;;;;;2.83;0.88;;;16.20;95.80;;;;;;5050679;28;20036;-85
2022/09/01 00:56:46;;;;;;;0.90;0.50;;;16.20;95.90;;;;;;5052666;28;20036;-81
2022/09/01 00:59:15;;;;;;;5.63;0.75;;;16.20;96.00;;;;;;5050471;28;20029;-82
2022/09/01 01:01:40;;;;;;;1.05;0.57;;;16.20;96.10;;;;;;5050879;28;20025;-81
2022/09/01 01:04:13;;;;;;;1.10;0.50;;;16.20;96.00;;;;;;5057558;28;20077;-86
2022/09/01 01:06:44;;;;;;;1.45;0.68;;;16.10;95.90;;;;;;5055202;28;20089;-83
2022/09/01 01:09:10;;;;;;;0.80;0.50;;;16.10;96.00;;;;;;5052247;28;20029;-84
2022/09/01 01:11:36;;;;;;;3.03;0.60;;;16.10;96.10;;;;;;5055730;28;20047;-82
2022/09/01 01:14:09;;;;;;;1.17;0.70;;;16.10;96.20;;;;;;5056919;28;20044;-83
2022/09/01 01:16:35;;;;;;;1.48;0.75;;;16.10;96.20;;;;;;5053089;28;20044;-85
2022/09/01 01:19:01;;;;;;;2.05;0.68;;;16.00;96.30;;;;;;5048937;28;20544;-82
2022/09/01 01:24:27;;;;;;;3.60;0.52;;;16.00;96.70;;;;;;5052917;28;20061;-83
2022/09/01 01:26:56;;;;;;;2.30;0.70;;;16.00;96.80;;;;;;5048951;28;20112;-81
2022/09/01 01:29:22;;;;;;;1.95;0.55;;;15.90;96.70;;;;;;5051903;28;20027;-82
2022/09/01 01:31:50;;;;;;;1.83;0.60;;;15.90;97.00;;;;;;5053138;28;20450;-81
2022/09/01 01:34:18;;;;;;;2.75;0.63;;;15.90;96.90;;;;;;5050967;28;20028;-81
2022/09/01 01:36:44;;;;;;;2.38;0.70;;;15.80;97.10;;;;;;5042547;28;20465;-81
2022/09/01 01:39:14;;;;;;;0.90;0.43;;;15.80;97.20;;;;;;5049062;28;20109;-81
2022/09/01 01:41:42;;;;;;;1.65;0.55;;;15.80;97.20;;;;;;5053564;28;20025;-81
2022/09/01 01:44:08;;;;;;;1.65;0.70;;;15.70;97.30;;;;;;5050672;28;20035;-81
2022/09/01 01:46:36;;;;;;;1.75;0.68;;;15.70;97.40;;;;;;5052254;28;20029;-81
2022/09/01 01:49:02;;;;;;;1.48;0.70;;;15.70;97.30;;;;;;5051566;28;20052;-81
2022/09/01 01:51:30;;;;;;;1.50;0.60;;;15.70;97.30;;;;;;5050930;28;20039;-81
2022/09/01 01:53:58;;;;;;;4.55;0.60;;;15.60;97.50;;;;;;5053900;28;20024;-85
2022/09/01 01:56:24;;;;;;;1.90;1.08;;;15.60;97.50;;;;;;5046979;28;20029;-81
2022/09/01 01:58:55;;;;;;;2.00;0.80;;;15.60;97.70;;;;;;5052859;28;20359;-82
2022/09/01 02:01:24;;;;;;;1.65;0.95;;;15.50;97.70;;;;;;5054951;28;20043;-85
2022/09/01 02:03:53;;;;;;;1.00;0.75;;;15.50;97.80;;;;;;5051343;28;20028;-81
2022/09/01 02:06:20;;;;;;;1.90;0.82;;;15.40;98.10;;;;;;5050486;28;20072;-81
2022/09/01 02:08:45;;;;;;;1.20;0.63;;;15.40;98.20;;;;;;5050839;28;20044;-81
2022/09/01 02:11:12;;;;;;;2.85;0.98;;;15.30;98.20;;;;;;5052587;28;20016;-82
2022/09/01 02:13:37;;;;;;;0.88;0.60;;;15.30;98.30;;;;;;5053862;28;20525;-81
2022/09/01 02:16:12;;;;;;;1.27;0.75;;;15.30;98.40;;;;;;5046561;28;20025;-81
2022/09/01 02:18:46;;;;;;;2.08;1.15;;;15.20;98.40;;;;;;5053766;28;20025;-81
2022/09/01 02:21:18;;;;;;;0.93;0.82;;;15.20;98.30;;;;;;5054456;28;20426;-81
2022/09/01 02:23:59;;;;;;;1.88;0.95;;;15.10;98.30;;;;;;5043229;28;20059;-84
2022/09/01 02:26:47;;;;;;;1.88;0.80;;;15.10;98.60;;;;;;5047336;28;20048;-83
2022/09/01 02:29:20;;;;;;;3.70;0.90;;;15.10;98.90;;;;;;5044193;28;20389;-84
2022/09/01 02:31:49;;;;;;;4.63;0.70;;;15.00;99.00;;;;;;5053839;28;20450;-85
2022/09/01 02:34:15;;;;;;;1.70;0.50;;;15.00;99.00;;;;;;5048090;28;20031;-84
2022/09/01 02:36:46;;;;;;;1.13;0.70;;;15.00;99.10;;;;;;5051275;28;20247;-81
2022/09/01 02:39:16;;;;;;;1.00;0.70;;;14.90;99.20;;;;;;5054400;28;20100;-81
2022/09/01 02:41:42;;;;;;;2.53;0.65;;;14.90;99.20;;;;;;5044236;28;20074;-81
2022/09/01 02:44:10;;;;;;;0.77;0.60;;;14.90;99.30;;;;;;5046208;28;20485;-82
2022/09/01 02:46:40;;;;;;;1.10;0.70;;;14.90;99.40;;;;;;5051555;28;20079;-81
2022/09/01 02:49:13;;;;;;;1.77;0.80;;;14.80;99.40;;;;;;5049271;28;20021;-85
2022/09/01 02:51:43;;;;;;;1.45;0.80;;;14.80;99.40;;;;;;5051431;28;20082;-82
2022/09/01 02:54:14;;;;;;;1.70;0.70;;;14.80;99.50;;;;;;5051404;28;20071;-81
2022/09/01 02:56:39;;;;;;;3.08;0.70;;;14.80;99.70;;;;;;5047382;28;20033;-82
2022/09/01 02:59:11;;;;;;;4.18;1.05;;;14.70;99.70;;;;;;5047488;28;20021;-81
2022/09/01 03:01:38;;;;;;;4.50;1.00;;;14.70;99.80;;;;;;5053144;28;20032;-83
2022/09/01 03:04:07;;;;;;;0.85;0.65;;;14.70;99.80;;;;;;5054582;28;20032;-81
2022/09/01 03:06:35;;;;;;;2.15;0.95;;;14.60;99.80;;;;;;5050650;28;20037;-85
2022/09/01 03:09:02;;;;;;;1.40;0.77;;;14.60;99.90;;;;;;5052558;28;20389;-81
2022/09/01 03:11:30;;;;;;;1.55;0.80;;;14.50;99.90;;;;;;5055064;28;20016;-83
2022/09/01 03:13:56;;;;;;;0.82;0.63;;;14.50;99.90;;;;;;5057214;28;20460;-80
2022/09/01 03:16:21;;;;;;;1.10;0.82;;;14.50;99.90;;;;;;5049656;28;20029;-80
2022/09/01 03:18:48;;;;;;;5.07;1.05;;;14.50;99.90;;;;;;5057043;28;20021;-86
2022/09/01 03:21:15;;;;;;;2.47;0.90;;;14.40;99.90;;;;;;5052193;28;20025;-81
2022/09/01 03:23:42;;;;;;;1.60;0.90;;;14.40;99.90;;;;;;5052522;28;20484;-81
2022/09/01 03:26:08;;;;;;;1.30;0.98;;;14.40;99.90;;;;;;5052649;28;20033;-81
2022/09/01 03:28:33;;;;;;;2.17;1.17;;;14.40;99.90;;;;;;5056745;28;20075;-81
2022/09/01 03:30:59;;;;;;;2.42;0.90;;;14.30;99.90;;;;;;5051987;28;20461;-82
2022/09/01 03:33:26;;;;;;;1.75;0.80;;;14.30;99.90;;;;;;5051622;28;20091;-81
2022/09/01 03:35:52;;;;;;;5.15;1.42;;;14.30;99.90;;;;;;5051321;28;20110;-81
2022/09/01 03:38:20;;;;;;;3.67;0.88;;;14.20;99.90;;;;;;5053004;28;20752;-83
2022/09/01 03:40:48;;;;;;;1.17;0.70;;;14.20;99.90;;;;;;5056561;28;20429;-86
2022/09/01 03:43:15;;;;;;;2.03;0.80;;;14.20;99.90;;;;;;5054446;28;20033;-85
2022/09/01 03:45:41;;;;;;;2.13;1.10;;;14.10;99.90;;;;;;5045934;28;20432;-85
2022/09/01 03:48:08;;;;;;;0.80;0.60;;;14.10;99.90;;;;;;5062742;28;20035;-81
2022/09/01 03:50:43;;;;;;;2.55;1.35;;;14.10;99.90;;;;;;5055896;28;20016;-80
2022/09/01 03:53:09;;;;;;;4.60;0.90;;;14.00;99.90;;;;;;5055721;28;20056;-81
2022/09/01 03:55:37;;;;;;;2.65;1.20;;;14.00;99.90;;;;;;5054339;28;20058;-81
2022/09/01 03:58:06;;;;;;;1.92;1.13;;;14.00;99.90;;;;;;5066424;28;20024;-81
2022/09/01 04:00:39;;;;;;;5.68;2.25;;;13.90;99.90;;;;;;5055686;28;20094;-81
2022/09/01 04:03:06;;;;;;;1.23;0.88;;;13.90;99.90;;;;;;5053230;28;20480;-81
2022/09/01 04:05:34;;;;;;;5.50;1.10;;;13.90;99.90;;;;;;5054543;28;20071;-80
2022/09/01 04:08:02;;;;;;;1.42;0.80;;;13.90;99.90;;;;;;5058336;28;20163;-80
2022/09/01 04:10:31;;;;;;;1.95;0.90;;;13.80;99.90;;;;;;5062431;28;20100;-80
2022/09/01 04:12:58;;;;;;;1.45;1.10;;;13.80;99.90;;;;;;5061873;28;20020;-83
2022/09/01 04:15:25;;;;;;;1.20;0.90;;;13.80;99.90;;;;;;5062179;28;20099;-80
2022/09/01 04:18:08;;;;;;;1.30;0.90;;;13.80;99.90;;;;;;5059283;28;20087;-80
2022/09/01 04:20:47;;;;;;;3.05;1.00;;;13.80;99.90;;;;;;5058250;28;20021;-80
2022/09/01 04:23:34;;;;;;;1.40;0.90;;;13.80;99.90;;;;;;5060956;28;20112;-82
2022/09/01 04:26:10;;;;;;;1.95;1.17;;;13.70;99.90;;;;;;5050811;28;20052;-80
2022/09/01 04:28:44;;;;;;;1.77;1.08;;;13.70;99.90;;;;;;5050008;28;20021;-84
2022/09/01 04:31:13;;;;;;;1.30;0.88;;;13.70;99.90;;;;;;5048902;28;20116;-81
2022/09/01 04:33:39;;;;;;;2.17;1.10;;;13.60;99.90;;;;;;5052819;28;20021;-81
2022/09/01 04:36:13;;;;;;;2.60;1.40;;;13.60;99.90;;;;;;5048661;28;20033;-81
2022/09/01 04:38:38;;;;;;;1.75;1.15;;;13.60;99.90;;;;;;5046789;28;20416;-80
2022/09/01 04:41:05;;;;;;;2.55;1.08;;;13.60;99.90;;;;;;5044569;28;20533;-85
2022/09/01 04:43:31;;;;;;;1.23;1.00;;;13.60;99.90;;;;;;5048656;28;20121;-83
2022/09/01 04:45:57;;;;;;;1.40;0.98;;;13.60;99.90;;;;;;5052640;28;20024;-84
2022/09/01 04:48:24;;;;;;;1.45;1.08;;;13.60;99.90;;;;;;5063678;28;20120;-81
2022/09/01 04:50:50;;;;;;;4.35;1.20;;;13.60;99.90;;;;;;5047598;28;20021;-83
2022/09/01 04:53:17;;;;;;;3.33;0.93;;;13.60;99.90;;;;;;5056699;28;20024;-80
2022/09/01 04:55:43;;;;;;;2.92;0.90;;;13.70;99.90;;;;;;5046037;28;20017;-80
2022/09/01 04:58:12;;;;;;;2.78;1.45;;;13.70;99.90;;;;;;5037729;28;20025;-83
2022/09/01 05:00:39;;;;;;;2.35;1.08;;;13.70;99.90;;;;;;5043958;28;20028;-81
2022/09/01 05:03:05;;;;;;;4.30;1.00;;;13.70;99.90;;;;;;5042132;28;20033;-80
2022/09/01 05:05:43;;;;;;;2.63;0.98;;;13.80;99.90;;;;;;5049880;28;20029;-81
2022/09/01 05:08:13;;;;;;;5.15;1.35;;;13.80;99.90;;;;;;5048905;28;20028;-82
2022/09/01 05:10:45;;;;;;;2.85;1.17;;;13.80;99.90;;;;;;5048259;28;20036;-81
2022/09/01 05:13:16;;;;;;;7.88;0.98;;;13.90;99.90;;;;;;5049171;28;20461;-79
2022/09/01 05:15:45;;;;;;;3.63;1.30;;;13.90;99.90;;;;;;5050982;28;20441;-80
2022/09/01 05:18:13;;;;;;;2.25;1.00;;;13.90;99.90;;;;;;5049042;28;20052;-80
2022/09/01 05:20:41;;;;;;;3.03;1.05;;;13.90;99.90;;;;;;5049267;28;20119;-81
2022/09/01 05:23:11;;;;;;;1.85;0.90;;;13.90;99.90;;;;;;5049206;28;20113;-81
2022/09/01 05:25:42;;;;;;;2.53;1.25;;;13.90;99.90;;;;;;5050117;28;20033;-82
2022/09/01 05:28:11;;;;;;;1.15;0.80;;;13.90;99.90;;;;;;5049148;28;20037;-81
2022/09/01 05:30:38;;;;;;;2.45;1.10;;;13.90;99.90;;;;;;5043532;28;20025;-80
2022/09/01 05:33:10;;;;;;;5.65;0.93;;;14.00;99.90;;;;;;5047833;28;20120;-81
2022/09/01 05:35:39;;;;;;;5.07;1.00;;;14.10;99.90;;;;;;5048350;28;20031;-84
2022/09/01 05:38:11;;;;;;;2.88;1.23;;;14.00;99.90;;;;;;5047979;28;20359;-84
2022/09/01 05:40:39;;;;;;;1.75;0.68;;;14.10;99.90;;;;;;5048815;28;20556;-80
2022/09/01 05:43:06;;;;;;;2.58;1.27;;;14.10;99.90;;;;;;5049203;28;20096;-82
2022/09/01 05:45:34;;;;;;;2.70;1.00;;;14.20;99.90;;;;;;5048047;28;20039;-81
2022/09/01 05:48:01;;;;;;;6.97;1.40;;;14.30;99.90;;;;;;5048208;28;20090;-80
2022/09/01 05:50:27;;;;;;;2.00;0.98;;;14.40;99.90;;;;;;5049275;28;20701;-80
2022/09/01 05:52:52;;;;;;;1.73;0.75;;;14.40;99.90;;;;;;5048497;28;20025;-80
2022/09/01 05:55:17;;;;;;;3.97;0.90;;;14.40;99.90;;;;;;5046646;28;20071;-83
2022/09/01 05:57:46;;;;;;;0.80;0.70;;;14.60;99.90;;;;;;5050103;28;20076;-84
2022/09/01 06:00:12;;;;;;;2.78;1.08;;;14.70;99.90;;;;;;5048508;28;20112;-81
2022/09/01 06:02:41;;;;;;;4.43;0.82;;;14.70;99.90;;;;;;5061923;28;20120;-81
2022/09/01 06:05:07;;;;;;;1.65;0.60;;;14.80;99.90;;;;;;5052762;28;20112;-83
2022/09/01 06:07:34;;;;;;;5.60;0.82;;;14.90;99.90;;;;;;5049068;28;20021;-86
2022/09/01 06:10:00;;;;;;;1.30;0.70;;;15.00;99.90;;;;;;5048946;28;20535;-82
2022/09/01 06:12:26;;;;;;;1.15;0.60;;;15.10;99.90;;;;;;5043150;28;20024;-83
2022/09/01 06:14:53;;;;;;;2.25;0.90;;;15.20;99.90;;;;;;5047816;28;20029;-79
2022/09/01 06:17:23;;;;;;;2.83;0.90;;;15.30;99.90;;;;;;5049145;28;20039;-79
2022/09/01 06:19:51;;;;;;;6.82;1.02;;;15.50;99.90;;;;;;5047344;28;20024;-84
2022/09/01 06:22:18;;;;;;;3.42;0.88;;;15.40;99.90;;;;;;5048306;28;20028;-80
2022/09/01 06:24:44;;;;;;;1.38;1.08;;;15.50;99.90;;;;;;5048011;28;20021;-82
2022/09/01 06:27:10;;;;;;;3.05;0.80;;;15.50;99.90;;;;;;5048985;28;20028;-81
2022/09/01 06:29:38;;;;;;;9.70;0.90;;;15.60;99.90;;;;;;5047288;28;20033;-84
2022/09/01 06:32:09;;;;;;;7.30;1.00;;;15.60;99.90;;;;;;5047524;28;20044;-81
2022/09/01 06:34:35;;;;;;;1.65;0.90;;;15.70;99.90;;;;;;5048729;28;20103;-80
2022/09/01 06:37:01;;;;;;;4.93;0.52;;;15.80;99.90;;;;;;5048341;28;20083;-80
2022/09/01 06:39:27;;;;;;;1.27;0.60;;;15.90;99.90;;;;;;5047630;28;20632;-82
2022/09/01 06:41:53;;;;;;;1.00;0.70;;;16.00;99.80;;;;;;5048169;28;20017;-81
2022/09/01 06:44:21;;;;;;;3.92;0.80;;;16.10;99.50;;;;;;5046379;28;20158;-80
2022/09/01 06:46:51;;;;;;;3.28;0.77;;;16.20;99.60;;;;;;5061075;28;20033;-80
2022/09/01 06:49:22;;;;;;;1.52;0.60;;;16.30;99.10;;;;;;5048451;28;20432;-84
2022/09/01 06:51:51;;;;;;;1.05;0.60;;;16.30;99.10;;;;;;5048221;28;20365;-83
2022/09/01 06:54:18;;;;;;;2.80;0.82;;;16.40;99.20;;;;;;5048989;28;20659;-81
2022/09/01 06:56:45;;;;;;;1.52;0.60;;;16.50;98.80;;;;;;5049186;28;20106;-82
2022/09/01 06:59:12;;;;;;;1.48;0.52;;;16.50;98.70;;;;;;5048599;28;20560;-80
2022/09/01 07:01:40;;;;;;;5.07;0.85;;;16.70;98.60;;;;;;5048473;28;20064;-83
2022/09/01 07:04:05;;;;;;;1.13;0.50;;;16.80;98.30;;;;;;5048937;28;20438;-81
2022/09/01 07:06:34;;;;;;;0.60;0.55;;;16.90;98.20;;;;;;5047134;28;20029;-84
2022/09/01 07:09:00;;;;;;;0.68;0.47;;;16.90;98.10;;;;;;5054060;28;20071;-82
2022/09/01 07:11:29;;;;;;;1.05;0.60;;;17.00;97.70;;;;;;5048209;28;20190;-83
2022/09/01 07:14:00;;;;;;;2.28;0.98;;;17.00;97.80;;;;;;5030257;28;20469;-81
2022/09/01 07:16:28;;;;;;;2.67;0.90;;;17.00;97.70;;;;;;5060807;28;20036;-85
2022/09/01 07:18:57;;;;;;;2.88;0.60;;;17.00;97.60;;;;;;5048957;28;20025;-79
2022/09/01 07:21:24;;;;;;;5.07;0.80;;;17.10;98.10;;;;;;5046211;28;20021;-81
2022/09/01 07:23:50;;;;;;;1.23;0.70;;;17.20;98.00;;;;;;5047419;28;20040;-85
2022/09/01 07:26:19;;;;;;;1.73;0.70;;;17.20;98.10;;;;;;5047675;28;20025;-81
2022/09/01 07:28:46;;;;;;;1.30;0.68;;;17.30;97.80;;;;;;5049772;28;20028;-80
2022/09/01 07:31:30;;;;;;;0.90;0.60;;;17.40;97.30;;;;;;5049384;28;20056;-83
2022/09/01 07:33:59;;;;;;;5.40;0.95;;;17.50;98.00;;;;;;5028466;28;20018;-83
2022/09/01 07:36:25;;;;;;;4.93;0.77;;;17.60;97.40;;;;;;5041340;28;20035;-81
2022/09/01 07:38:52;;;;;;;6.05;0.77;;;17.70;97.80;;;;;;5049453;28;20053;-81
2022/09/01 07:41:23;;;;;;;4.60;0.60;;;17.80;97.30;;;;;;5048421;28;20018;-81
2022/09/01 07:43:52;;;;;;;4.50;0.80;;;17.90;97.40;;;;;;5049859;28;20021;-82
2022/09/01 07:46:22;;;;;;;5.07;0.90;;;18.00;97.50;;;;;;5054320;28;20021;-81
2022/09/01 07:48:49;;;;;;;1.52;0.43;;;18.10;96.80;;;;;;5059646;28;20020;-81
2022/09/01 07:51:20;;;;;;;1.60;0.70;;;18.30;95.90;;;;;;5065023;28;20776;-81
2022/09/01 07:53:49;;;;;;;1.30;0.60;;;18.30;95.90;;;;;;5057261;28;20100;-83
2022/09/01 07:56:17;;;;;;;1.35;0.47;;;18.40;96.20;;;;;;5056050;28;20465;-80
2022/09/01 07:58:43;;;;;;;0.82;0.57;;;18.40;95.80;;;;;;5051865;28;20111;-83
2022/09/01 08:01:12;;;;;;;2.30;0.90;;;18.50;95.60;;;;;;5057333;28;20021;-83
2022/09/01 08:03:39;;;;;;;1.70;0.85;;;18.50;95.70;;;;;;5066613;28;20028;-80
2022/09/01 08:06:08;;;;;;;1.85;0.70;;;18.60;95.70;;;;;;5061945;28;20029;-81
2022/09/01 08:08:36;;;;;;;1.50;0.70;;;18.60;96.20;;;;;;5049738;28;20021;-80
2022/09/01 08:11:02;;;;;;;1.77;0.80;;;18.60;95.90;;;;;;5047481;28;20036;-80
2022/09/01 08:13:29;;;;;;;1.80;0.88;;;18.70;95.90;;;;;;5051546;28;20052;-80
2022/09/01 08:15:54;;;;;;;4.15;0.75;;;18.80;95.40;;;;;;5051324;28;20411;-83
2022/09/01 08:18:20;;;;;;;1.45;0.50;;;18.80;95.30;;;;;;5050208;28;20036;-81
2022/09/01 08:20:46;;;;;;;1.55;0.80;;;18.90;95.20;;;;;;5051064;28;20029;-83
2022/09/01 08:23:17;;;;;;;1.35;0.50;;;19.10;95.10;;;;;;5051117;28;20040;-81
2022/09/01 08:25:44;;;;;;;0.95;0.57;;;19.20;95.00;;;;;;5049768;28;20369;-80
2022/09/01 08:28:10;;;;;;;1.45;0.50;;;19.20;95.10;;;;;;5050110;28;20029;-80
2022/09/01 08:30:39;;;;;;;4.47;0.70;;;19.30;94.90;;;;;;5051295;28;20454;-82
2022/09/01 08:33:05;;;;;;;1.95;0.88;;;19.40;94.90;;;;;;5049840;28;20053;-81
2022/09/01 08:35:30;;;;;;;2.10;0.82;;;19.50;94.70;;;;;;5050676;28;20119;-79
2022/09/01 08:37:57;;;;;;;1.45;0.65;;;19.40;94.80;;;;;;5050799;28;20100;-83
2022/09/01 08:40:23;;;;;;;1.92;0.73;;;19.40;94.70;;;;;;5043477;28;20528;-84
2022/09/01 08:43:15;;;;;;;2.08;0.60;;;19.50;94.80;;;;;;5047839;28;20120;-84
2022/09/01 08:45:41;;;;;;;2.97;1.40;;;19.60;94.90;;;;;;5058726;28;20491;-83
2022/09/01 08:48:33;;;;;;;4.72;0.57;;;19.60;94.40;;;;;;5059493;28;20029;-83
2022/09/01 08:51:07;;;;;;;1.73;0.88;;;19.70;94.50;;;;;;5042778;28;20035;-81
2022/09/01 08:53:39;;;;;;;2.92;0.70;;;19.60;94.40;;;;;;5069431;28;20139;-85
2022/09/01 08:56:07;;;;;;;;;;;19.70;94.30;;;;;;5066361;28;20028;-83
2022/09/01 08:58:33;;;;;;;5.47;0.77;;;19.70;94.10;;;;;;5049533;28;19905;-84
2022/09/01 09:01:03;;;;;;;2.40;0.70;;;19.70;94.20;;;;;;5046654;28;20032;-81
2022/09/01 09:03:59;;;;;;;1.83;0.90;;;19.80;94.60;;;;;;5047856;28;20035;-85
2022/09/01 09:06:55;;;;;;;6.30;1.08;;;20.00;93.80;;;;;;5052023;28;20524;-83
2022/09/01 09:09:30;;;;;;;1.48;0.60;;;20.10;94.10;;;;;;5042753;28;20048;-91
2022/09/01 09:12:26;;;;;;;2.13;0.63;;;20.30;94.30;;;;;;5049956;28;20021;-89
2022/09/01 09:15:02;;;;;;;4.90;0.43;;;20.60;93.80;;;;;;5050018;28;20021;-89
2022/09/01 09:17:38;;;;;;;3.45;0.70;;;20.70;93.30;;;;;;5049843;28;20057;-89
2022/09/01 09:20:05;;;;;;;8.18;0.88;;;20.90;92.10;;;;;;5049850;28;20036;-87
2022/09/01 09:22:31;;;;;;;6.00;0.82;;;20.70;92.50;;;;;;5068082;28;20029;-90
2022/09/01 09:25:13;;;;;;;2.05;0.80;;;20.80;93.10;;;;;;5029457;28;20021;-83
2022/09/01 09:27:42;;;;;;;1.08;0.73;;;21.00;92.90;;;;;;5036323;28;20013;-87
2022/09/01 09:30:18;;;;;;;3.65;0.80;;;21.10;92.30;;;;;;5034520;28;20406;-87
2022/09/01 09:32:52;;;;;;;1.75;0.80;;;21.30;92.60;;;;;;5038868;28;20028;-87
2022/09/01 09:35:20;;;;;;;1.92;0.63;;;21.40;91.50;;;;;;5047926;28;20014;-85
2022/09/01 09:37:45;;;;;;;1.38;0.70;;;21.30;91.60;;;;;;5043344;28;20024;-88
2022/09/01 09:40:14;;;;;;;1.25;0.57;;;21.40;91.60;;;;;;5054195;28;20024;-87
2022/09/01 09:42:57;;;;;;;4.88;1.10;;;21.60;91.60;;;;;;5064089;28;20042;-84
2022/09/01 09:45:35;;;;;;;;;;;21.60;91.00;;;;;;5053569;28;20048;-86
2022/09/01 09:48:06;;;;;;;1.17;0.68;;;21.50;90.40;;;;;;5075494;28;19913;-85
2022/09/01 09:50:33;;;;;;;2.10;0.70;;;21.60;91.30;;;;;;5068850;28;20040;-85
2022/09/01 09:53:26;;;;;;;0.80;0.50;;;21.80;90.20;;;;;;5074445;28;20047;-84
2022/09/01 09:56:08;;;;;;;2.80;0.50;;;21.90;90.50;;;;;;5065916;28;20025;-86
2022/09/01 09:58:38;;;;;;;4.73;0.57;;;22.10;90.20;;;;;;5060049;28;20021;-88
2022/09/01 10:01:16;;;;;;;0.95;0.50;;;22.40;88.10;;;;;;5045014;28;20267;-89
2022/09/01 10:03:47;;;;;;;1.38;0.50;;;22.40;89.20;;;;;;5049512;28;20021;-87
2022/09/01 10:06:29;;;;;;;1.83;0.40;;;22.60;86.70;;;;;;5048981;28;20044;-86
2022/09/01 10:08:54;;;;;;;1.40;0.80;;;22.50;88.90;;;;;;5050482;28;20033;-87
2022/09/01 10:11:41;;;;;;;4.63;0.73;;;22.60;86.70;;;;;;5050346;28;20366;-88
2022/09/01 10:14:20;;;;;;;1.83;0.55;;;22.60;85.80;;;;;;5048920;28;20021;-87
2022/09/01 10:16:52;;;;;;;0.95;0.45;;;22.70;86.80;;;;;;5048447;28;20036;-86
2022/09/01 10:19:19;;;;;;;2.05;0.50;;;22.80;87.50;;;;;;5049213;28;20365;-87
2022/09/01 10:21:45;;;;;;;2.33;0.60;;;22.70;85.80;;;;;;5038506;28;20112;-87
2022/09/01 10:24:26;;;;;;;1.95;0.63;;;22.80;85.70;;;;;;5041469;28;20029;-86
2022/09/01 10:26:57;;;;;;;2.28;0.65;;;23.00;87.00;;;;;;5047303;28;20029;-86
2022/09/01 10:29:52;;;;;;;2.17;0.50;;;23.30;85.20;;;;;;5028405;28;20036;-87
2022/09/01 10:32:23;;;;;;;0.90;0.40;;;23.50;83.50;;;;;;5039838;28;20040;-87
2022/09/01 10:34:49;;;;;;;1.60;0.50;;;23.80;81.70;;;;;;5049634;28;20028;-86
2022/09/01 10:37:16;;;;;;;0.95;0.30;;;23.60;80.50;;;;;;5048983;28;20504;-84
2022/09/01 10:40:14;;;;;;;2.50;0.55;;;23.60;81.10;;;;;;5048381;28;20021;-85
2022/09/01 10:42:42;;;;;;;0.55;0.30;;;23.50;79.10;;;;;;5049462;28;20055;-86
2022/09/01 10:45:34;;;;;;;0.60;0.30;;;23.70;80.30;;;;;;5049483;28;20246;-84
2022/09/01 10:48:25;;;;;;;4.80;0.38;;;23.90;80.00;;;;;;5051020;28;20035;-86
2022/09/01 10:51:13;;;;;;;1.25;0.45;;;24.10;79.90;;;;;;5039483;28;20025;-84
2022/09/01 10:53:50;;;;;;;1.95;0.50;;;24.00;77.90;;;;;;5046683;28;20033;-85
2022/09/01 10:56:36;;;;;;;0.80;0.43;;;24.20;80.20;;;;;;5054615;28;20039;-85
2022/09/01 10:59:21;;;;;;;1.27;0.43;;;24.40;80.60;;;;;;5058319;28;20028;-87
2022/09/01 11:01:47;;;;;;;2.80;0.50;;;24.70;75.80;;;;;;5049253;28;20466;-85
2022/09/01 11:04:16;;;;;;;0.63;0.32;;;24.80;77.30;;;;;;5049883;28;20036;-85
2022/09/01 11:06:49;;;;;;;0.85;0.40;;;25.10;76.30;;;;;;5048912;28;20052;-86
2022/09/01 11:09:35;;;;;;;0.98;0.30;;;25.10;76.10;;;;;;5056346;28;20033;-84
2022/09/01 11:12:28;;;;;;;1.23;0.47;;;25.10;75.60;;;;;;5046265;28;20040;-87
2022/09/01 11:14:53;;;;;;;0.95;0.35;;;25.10;72.80;;;;;;5043921;28;20025;-84
2022/09/01 11:17:23;;;;;;;1.95;0.40;;;25.00;72.90;;;;;;5042700;28;20040;-86
2022/09/01 11:20:21;;;;;;;0.82;0.40;;;24.90;74.60;;;;;;5044784;28;20040;-85
2022/09/01 11:22:55;;;;;;;1.70;0.40;;;24.70;75.60;;;;;;5046390;28;20035;-85
2022/09/01 11:25:47;;;;;;;0.70;0.32;;;24.30;76.00;;;;;;5034435;28;20462;-84
2022/09/01 11:28:22;;;;;;;0.52;0.35;;;24.10;77.80;;;;;;5062116;28;20035;-86
2022/09/01 11:31:03;;;;;;;0.85;0.50;;;24.20;78.50;;;;;;5060150;28;20088;-85
2022/09/01 11:33:57;;;;;;;1.38;0.30;;;23.90;77.10;;;;;;5083973;28;20028;-85
2022/09/01 11:36:44;;;;;;;0.50;0.40;;;23.80;78.70;;;;;;5054690;28;20024;-85
2022/09/01 11:39:13;;;;;;;0.80;0.40;;;23.60;77.70;;;;;;5049213;28;20055;-85
2022/09/01 11:41:38;;;;;;;0.55;0.30;;;23.50;79.00;;;;;;5047756;28;20110;-84
2022/09/01 11:44:12;;;;;;;0.90;0.40;;;23.50;78.10;;;;;;5045726;28;20036;-85
2022/09/01 11:46:41;;;;;;;1.98;0.55;;;23.60;78.50;;;;;;5055826;28;20035;-85
2022/09/01 11:49:24;;;;;;;4.57;0.52;;;23.60;77.40;;;;;;5042962;28;20446;-86
2022/09/01 11:51:50;;;;;;;1.40;0.40;;;23.50;76.40;;;;;;5050684;28;20084;-82
2022/09/01 11:54:16;;;;;;;1.38;0.40;;;23.40;75.90;;;;;;5049902;28;20040;-81
2022/09/01 11:56:41;;;;;;;0.57;0.30;;;23.30;78.10;;;;;;5046173;28;20439;-83
2022/09/01 11:59:07;;;;;;;1.00;0.43;;;23.40;77.30;;;;;;5048757;28;20035;-84
2022/09/01 12:01:35;;;;;;;3.88;0.40;;;23.20;75.20;;;;;;5045677;28;20017;-84
2022/09/01 12:04:22;;;;;;;1.27;0.50;;;23.30;77.70;;;;;;5040650;28;20032;-83
2022/09/01 12:06:57;;;;;;;3.45;0.50;;;23.30;77.90;;;;;;5046700;28;20112;-83
2022/09/01 12:09:32;;;;;;;0.73;0.50;;;23.20;77.60;;;;;;5048628;28;20027;-84
2022/09/01 12:11:58;;;;;;;1.38;0.50;;;23.30;77.00;;;;;;5046309;28;20048;-84
2022/09/01 12:14:23;;;;;;;2.35;0.30;;;23.30;77.60;;;;;;5044508;28;20477;-84
2022/09/01 12:17:05;;;;;;;1.30;0.30;;;23.20;76.80;;;;;;5042668;28;20120;-84
2022/09/01 12:19:33;;;;;;;3.30;0.30;;;23.20;76.40;;;;;;5043274;28;20018;-84
2022/09/01 12:22:16;;;;;;;0.60;0.30;;;23.20;76.00;;;;;;5060779;28;20353;-84
2022/09/01 12:24:48;;;;;;;0.50;0.30;;;23.20;76.90;;;;;;5044076;28;20025;-85
2022/09/01 12:27:14;;;;;;;1.25;0.45;;;23.30;76.40;;;;;;5044133;28;20496;-86
2022/09/01 12:29:40;;;;;;;0.40;0.40;;;23.30;75.70;;;;;;5047909;28;20067;-84
2022/09/01 12:32:05;;;;;;;2.28;0.50;;;23.20;77.00;;;;;;5037071;28;20104;-85
2022/09/01 12:34:46;;;;;;;1.17;0.43;;;23.30;77.10;;;;;;5036550;28;20116;-86
2022/09/01 12:37:15;;;;;;;3.22;0.40;;;23.30;75.40;;;;;;5040306;28;20032;-84
2022/09/01 12:39:43;;;;;;;0.75;0.30;;;23.40;76.30;;;;;;5041581;28;20029;-85
2022/09/01 12:42:26;;;;;;;0.43;0.30;;;23.50;74.90;;;;;;5046693;28;20034;-86
2022/09/01 12:44:58;;;;;;;1.75;0.40;;;23.40;73.80;;;;;;5047892;28;20112;-85
2022/09/01 12:47:34;;;;;;;0.50;0.30;;;23.50;74.20;;;;;;5043242;28;20059;-84
2022/09/01 12:50:03;;;;;;;0.47;0.30;;;23.60;73.00;;;;;;5038031;28;20029;-83
2022/09/01 12:52:31;;;;;;;0.77;0.40;;;23.60;73.10;;;;;;5036842;28;20531;-83
2022/09/01 12:54:57;;;;;;;1.35;0.40;;;23.60;72.50;;;;;;5039904;28;20028;-85
2022/09/01 12:57:27;;;;;;;1.90;0.40;;;23.60;71.00;;;;;;5037699;28;20070;-83
2022/09/01 13:00:09;;;;;;;0.60;0.30;;;23.60;71.20;;;;;;5038288;28;20050;-82
2022/09/01 13:02:41;;;;;;;0.65;0.30;;;23.80;70.30;;;;;;5035909;28;20449;-86
2022/09/01 13:05:29;;;;;;;2.67;0.30;;;23.80;68.60;;;;;;5047656;28;20036;-82
2022/09/01 13:07:56;;;;;;;0.93;0.40;;;24.00;70.60;;;;;;5038795;28;20441;-87